createdAt,value
2023-01-29T00:01:38.572Z,10.10
2023-01-29T00:04:05.578Z,10.10
2023-01-29T00:06:32.713Z,9.80
2023-01-29T00:09:01.381Z,10.00
2023-01-29T00:11:31.517Z,9.60
2023-01-29T00:13:59.735Z,9.20
2023-01-29T00:16:28.277Z,9.80
2023-01-29T00:18:56.569Z,9.70
2023-01-29T00:21:25.114Z,9.50
2023-01-29T00:23:55.547Z,10.60
2023-01-29T00:26:24.783Z,9.20
2023-01-29T00:28:53.659Z,10.30
2023-01-29T00:31:24.220Z,9.70
2023-01-29T00:33:52.870Z,10.20
2023-01-29T00:36:21.766Z,9.80
2023-01-29T00:38:58.971Z,9.70
2023-01-29T00:41:47.157Z,9.90
2023-01-29T00:44:37.087Z,10.20
2023-01-29T00:47:25.604Z,9.80
2023-01-29T00:49:54.011Z,9.80
2023-01-29T00:52:26.483Z,9.20
2023-01-29T00:54:56.848Z,10.00
2023-01-29T00:57:27.070Z,9.40
2023-01-29T00:59:55.754Z,10.20
2023-01-29T01:02:43.129Z,9.10
2023-01-29T01:05:18.402Z,9.20
2023-01-29T01:07:53.531Z,9.50
2023-01-29T01:10:33.072Z,8.70
2023-01-29T01:13:04.458Z,8.40
2023-01-29T01:15:40.235Z,8.20
2023-01-29T01:18:08.709Z,9.00
2023-01-29T01:20:37.499Z,8.80
2023-01-29T01:23:06.504Z,8.80
2023-01-29T01:25:34.721Z,8.90
2023-01-29T01:28:03.091Z,9.00
2023-01-29T01:30:33.319Z,9.20
2023-01-29T01:33:02.457Z,9.80
2023-01-29T01:35:32.181Z,9.50
2023-01-29T01:38:01.532Z,9.20
2023-01-29T01:40:30.222Z,9.30
2023-01-29T01:42:59.816Z,8.90
2023-01-29T01:45:34.496Z,9.50
2023-01-29T01:48:35.319Z,9.10
2023-01-29T01:51:04.908Z,9.60
2023-01-29T01:53:42.077Z,9.30
2023-01-29T01:56:14.091Z,8.90
2023-01-29T01:59:02.885Z,9.40
2023-01-29T02:01:32.192Z,9.60
2023-01-29T02:04:28.547Z,9.90
2023-01-29T02:07:15.634Z,8.80
2023-01-29T02:10:10.791Z,8.90
2023-01-29T02:12:40.392Z,9.00
2023-01-29T02:15:09.989Z,8.30
2023-01-29T02:17:39.150Z,8.30
2023-01-29T02:27:48.921Z,7.60
2023-01-29T02:30:34.030Z,7.90
2023-01-29T02:33:09.663Z,8.50
2023-01-29T02:35:47.020Z,8.40
2023-01-29T02:38:20.869Z,8.40
2023-01-29T02:40:52.276Z,8.00
2023-01-29T02:43:42.967Z,7.90
2023-01-29T02:46:19.655Z,8.00
2023-01-29T02:49:14.206Z,8.00
2023-01-29T02:51:50.401Z,7.50
2023-01-29T02:54:25.315Z,8.30
2023-01-29T02:56:59.240Z,8.50
2023-01-29T02:59:42.717Z,7.70
2023-01-29T03:02:17.708Z,8.30
2023-01-29T03:04:52.153Z,7.90
2023-01-29T03:07:42.869Z,7.90
2023-01-29T03:10:28.502Z,8.40
2023-01-29T03:13:15.048Z,8.20
2023-01-29T03:15:48.641Z,7.90
2023-01-29T03:18:59.026Z,8.00
2023-01-29T03:21:59.872Z,8.10
2023-01-29T03:25:03.624Z,8.30
2023-01-29T03:28:17.162Z,8.10
2023-01-29T03:31:13.606Z,7.90
2023-01-29T03:34:08.591Z,8.20
2023-01-29T03:36:45.476Z,8.20
2023-01-29T03:39:14.177Z,8.40
2023-01-29T03:41:47.943Z,8.30
2023-01-29T03:44:20.633Z,7.60
2023-01-29T03:47:00.878Z,8.10
2023-01-29T03:49:54.390Z,8.20
2023-01-29T03:52:56.135Z,8.30
2023-01-29T03:55:46.457Z,7.70
2023-01-29T03:58:37.911Z,7.90
2023-01-29T04:01:19.882Z,8.20
2023-01-29T04:04:08.406Z,8.20
2023-01-29T04:06:38.575Z,7.80
2023-01-29T04:09:24.022Z,8.00
2023-01-29T04:12:00.329Z,8.10
2023-01-29T04:14:28.805Z,8.00
2023-01-29T04:16:58.112Z,7.90
2023-01-29T07:32:35.379Z,13.00
2023-01-29T07:35:02.372Z,13.70
2023-01-29T07:37:29.721Z,12.60
2023-01-29T07:39:56.721Z,13.20
2023-01-29T07:42:24.206Z,12.40
2023-01-29T07:44:51.107Z,12.60
2023-01-29T07:47:18.001Z,11.80
2023-01-29T07:49:44.859Z,12.50
2023-01-29T07:52:11.757Z,12.50
2023-01-29T07:54:38.674Z,12.10
2023-01-29T07:57:05.588Z,11.30
2023-01-29T07:59:32.454Z,11.70
2023-01-29T08:01:59.330Z,11.80
2023-01-29T08:04:28.287Z,11.80
2023-01-29T08:06:55.211Z,11.30
2023-01-29T08:09:22.179Z,10.90
2023-01-29T08:11:51.969Z,11.90
2023-01-29T08:14:19.228Z,11.80
2023-01-29T08:16:46.192Z,11.70
2023-01-29T08:19:13.205Z,11.60
2023-01-29T08:21:40.023Z,11.50
2023-01-29T08:24:07.110Z,11.80
2023-01-29T08:26:34.592Z,11.60
2023-01-29T08:29:01.736Z,10.80
2023-01-29T08:31:28.880Z,11.40
2023-01-29T08:33:58.366Z,12.20
2023-01-29T08:36:25.357Z,11.30
2023-01-29T08:38:52.218Z,11.30
2023-01-29T08:41:22.366Z,10.70
2023-01-29T08:43:49.300Z,12.10
2023-01-29T08:46:16.347Z,11.50
2023-01-29T08:48:43.909Z,11.30
2023-01-29T08:51:10.918Z,10.40
2023-01-29T08:53:38.295Z,11.40
2023-01-29T08:56:05.572Z,11.20
2023-01-29T08:58:32.897Z,11.50
2023-01-29T09:01:10.078Z,12.50
2023-01-29T09:03:40.456Z,10.70
2023-01-29T09:06:09.260Z,11.90
2023-01-29T09:08:36.146Z,11.20
2023-01-29T09:11:03.275Z,11.40
2023-01-29T09:13:30.184Z,11.00
2023-01-29T09:16:00.958Z,10.70
2023-01-29T09:18:28.796Z,11.20
2023-01-29T09:20:55.932Z,11.60
2023-01-29T09:23:23.522Z,11.80
2023-01-29T09:25:50.517Z,10.90
2023-01-29T09:28:17.466Z,11.40
2023-01-29T09:30:45.043Z,10.90
2023-01-29T09:33:11.980Z,11.00
2023-01-29T09:35:45.265Z,11.00
2023-01-29T09:41:10.370Z,10.40
2023-01-29T09:43:56.052Z,12.10
2023-01-29T09:46:41.641Z,12.00
2023-01-29T09:49:11.736Z,10.80
2023-01-29T09:51:44.264Z,11.70
2023-01-29T09:54:17.282Z,11.40
2023-01-29T09:56:45.228Z,12.20
2023-01-29T09:59:13.138Z,13.20
2023-01-29T10:01:49.389Z,12.10
2023-01-29T10:04:43.135Z,12.20
2023-01-29T10:07:15.671Z,12.00
2023-01-29T10:10:00.958Z,11.50
2023-01-29T10:12:46.695Z,11.20
2023-01-29T10:15:20.016Z,11.30
2023-01-29T10:20:52.078Z,11.50
2023-01-29T10:23:33.495Z,11.00
2023-01-29T10:26:02.273Z,11.00
2023-01-29T10:28:42.972Z,12.50
2023-01-29T10:31:15.001Z,11.10
2023-01-29T10:34:03.517Z,10.80
2023-01-29T10:36:43.181Z,10.80
2023-01-29T10:39:21.152Z,11.50
2023-01-29T10:41:54.291Z,11.60
2023-01-29T10:47:16.095Z,11.30
2023-01-29T10:50:05.205Z,11.90
2023-01-29T10:52:43.429Z,12.00
2023-01-29T10:55:22.872Z,11.90
2023-01-29T10:58:02.934Z,11.60
2023-01-29T11:00:39.812Z,12.10
2023-01-29T11:03:27.046Z,11.80
2023-01-29T11:06:11.219Z,11.20
2023-01-29T11:08:41.844Z,11.50
2023-01-29T11:11:16.587Z,12.00
2023-01-29T11:14:08.515Z,12.30
2023-01-29T11:16:45.292Z,12.70
2023-01-29T11:19:13.264Z,12.00
2023-01-29T11:22:00.741Z,11.60
2023-01-29T11:24:28.853Z,11.20
2023-01-29T11:26:57.772Z,10.60
2023-01-29T11:29:43.792Z,11.30
2023-01-29T11:32:34.988Z,11.80
2023-01-29T11:35:02.452Z,11.20
2023-01-29T11:37:35.038Z,11.30
2023-01-29T11:40:07.407Z,11.20
2023-01-29T11:42:34.500Z,11.00
2023-01-29T11:45:01.472Z,11.50
2023-01-29T11:47:29.371Z,11.50
2023-01-29T11:49:57.766Z,10.90
2023-01-29T11:52:36.039Z,10.70
2023-01-29T11:55:23.848Z,10.70
2023-01-29T11:57:57.253Z,10.20
2023-01-29T12:00:34.874Z,10.20
2023-01-29T12:03:17.154Z,11.10
2023-01-29T12:05:57.024Z,10.50
2023-01-29T12:08:24.005Z,10.90
2023-01-29T12:10:51.315Z,11.00
2023-01-29T12:13:25.676Z,11.60
2023-01-29T12:16:35.805Z,11.50
2023-01-29T12:19:11.585Z,12.00
2023-01-29T12:21:47.558Z,12.10
2023-01-29T12:24:42.732Z,11.70
2023-01-29T12:27:36.118Z,11.00
2023-01-29T12:30:28.328Z,12.00
2023-01-29T12:33:05.763Z,12.70
2023-01-29T12:35:38.244Z,12.20
2023-01-29T12:38:20.251Z,11.00
2023-01-29T12:41:00.372Z,12.00
2023-01-29T12:43:48.605Z,12.50
2023-01-29T12:46:26.144Z,11.70
2023-01-29T12:48:54.034Z,11.50
2023-01-29T12:51:26.246Z,11.10
2023-01-29T12:54:02.826Z,12.00
2023-01-29T12:56:40.795Z,11.10
2023-01-29T12:59:30.342Z,12.30
2023-01-29T13:02:19.152Z,11.60
2023-01-29T13:04:57.711Z,11.30
2023-01-29T13:07:33.296Z,11.70
2023-01-29T13:10:09.182Z,12.00
2023-01-29T13:12:39.064Z,11.30
2023-01-29T13:15:15.476Z,11.10
2023-01-29T13:17:44.292Z,10.60
2023-01-29T13:20:32.018Z,11.00
2023-01-29T13:23:06.087Z,11.40
2023-01-29T13:25:33.310Z,11.10
2023-01-29T13:28:01.026Z,11.20
2023-01-29T16:20:00.605Z,12.20
2023-01-29T16:22:35.877Z,11.90
2023-01-29T16:25:04.523Z,10.90
2023-01-29T16:27:32.463Z,11.40
2023-01-29T16:30:01.673Z,10.20
2023-01-29T16:32:29.568Z,10.30
2023-01-29T16:34:59.235Z,9.80
2023-01-29T16:37:28.516Z,9.80
2023-01-29T16:39:55.916Z,9.50
2023-01-29T16:42:30.114Z,9.00
2023-01-29T16:45:01.709Z,9.40
2023-01-29T16:47:38.628Z,8.80
2023-01-29T16:50:36.166Z,8.70
2023-01-29T16:53:31.347Z,8.60
2023-01-29T16:56:05.379Z,7.70
2023-01-29T16:58:32.393Z,8.40
2023-01-29T17:01:08.857Z,8.20
2023-01-29T17:03:36.629Z,8.20
2023-01-29T17:06:18.696Z,9.00
2023-01-29T17:08:45.753Z,8.70
2023-01-29T17:11:13.818Z,8.40
2023-01-29T17:13:42.484Z,8.40
2023-01-29T17:16:25.672Z,8.60
2023-01-29T17:18:53.184Z,8.30
2023-01-29T17:21:20.048Z,8.00
2023-01-29T17:23:47.415Z,8.40
2023-01-29T17:26:14.495Z,7.90
2023-01-29T17:28:41.577Z,7.80
2023-01-29T17:31:08.604Z,8.10
2023-01-29T17:33:36.986Z,7.90
2023-01-29T17:36:04.013Z,7.80
2023-01-29T17:38:31.977Z,8.60
2023-01-29T17:41:21.401Z,8.70
2023-01-29T17:43:48.255Z,8.70
2023-01-29T17:46:16.296Z,8.10
2023-01-29T17:48:43.721Z,7.90
2023-01-29T17:51:14.892Z,7.60
2023-01-29T17:53:45.997Z,7.90
2023-01-29T17:56:17.416Z,8.10
2023-01-29T17:58:46.649Z,7.80
2023-01-29T18:01:14.999Z,7.80
2023-01-29T18:03:50.203Z,7.30
2023-01-29T18:06:29.096Z,7.90
2023-01-29T18:08:57.377Z,7.80
2023-01-29T18:11:25.646Z,8.00
2023-01-29T18:13:55.303Z,7.60
2023-01-29T18:16:24.219Z,8.30
2023-01-29T18:18:52.651Z,8.20
2023-01-29T18:21:22.937Z,7.90
2023-01-29T18:23:52.274Z,7.60
2023-01-29T18:26:20.640Z,7.30
2023-01-29T18:28:50.123Z,7.60
2023-01-29T18:31:19.976Z,7.20
2023-01-29T18:33:51.430Z,8.00
2023-01-29T18:36:22.480Z,7.70
2023-01-29T18:38:51.722Z,7.30
2023-01-29T18:41:22.509Z,7.70
2023-01-29T18:43:53.185Z,7.20
2023-01-29T18:46:24.461Z,7.20
2023-01-29T18:48:55.705Z,7.60
2023-01-29T18:51:24.523Z,7.50
2023-01-29T18:53:52.992Z,6.90
2023-01-29T18:56:21.408Z,7.20
2023-01-29T18:58:55.909Z,7.70
2023-01-29T19:01:24.540Z,6.90
2023-01-29T19:03:53.095Z,7.10
2023-01-29T19:06:23.197Z,7.10
2023-01-29T19:08:52.640Z,7.30
2023-01-29T19:11:23.339Z,7.20
2023-01-29T19:13:52.164Z,7.40
2023-01-29T19:16:20.948Z,7.20
2023-01-29T19:18:49.649Z,7.10
2023-01-29T19:21:18.219Z,7.60
2023-01-29T19:23:47.737Z,7.30
2023-01-29T19:26:16.181Z,7.40
2023-01-29T19:28:44.914Z,7.40
2023-01-29T19:31:13.939Z,7.40
2023-01-29T19:33:43.972Z,7.60
2023-01-29T19:36:13.826Z,7.50
2023-01-29T19:38:43.479Z,7.00
2023-01-29T19:41:12.055Z,7.20
2023-01-29T19:43:42.297Z,7.50
2023-01-29T19:46:10.895Z,7.40
2023-01-29T19:48:39.436Z,7.60
2023-01-29T19:51:10.091Z,7.30
2023-01-29T19:53:44.454Z,7.10
2023-01-29T19:56:15.557Z,7.50
2023-01-29T19:58:44.021Z,7.40
2023-01-29T20:01:20.469Z,7.50
2023-01-29T20:03:49.814Z,7.20
2023-01-29T20:06:20.515Z,7.30
2023-01-29T20:08:49.210Z,7.40
2023-01-29T20:11:19.838Z,7.10
2023-01-29T20:13:49.953Z,7.20
2023-01-29T20:16:18.738Z,7.90
2023-01-29T20:18:49.933Z,7.70
2023-01-29T20:21:22.470Z,7.60
2023-01-29T20:23:54.087Z,7.50
2023-01-29T20:26:22.976Z,7.80
2023-01-29T20:28:51.625Z,8.00
2023-01-29T20:31:19.933Z,7.60
2023-01-29T20:33:48.816Z,7.40
2023-01-29T20:36:17.725Z,7.40
2023-01-29T20:38:48.195Z,7.70
2023-01-29T20:41:17.198Z,7.40
2023-01-29T20:43:47.507Z,8.00
2023-01-29T20:46:15.756Z,7.60
2023-01-29T20:48:44.420Z,7.70
2023-01-29T20:51:16.296Z,7.50
2023-01-29T20:53:45.937Z,7.40
2023-01-29T20:56:16.608Z,7.50
2023-01-29T20:58:47.030Z,7.40
2023-01-29T21:01:19.420Z,7.50
2023-01-29T21:03:47.993Z,7.20
2023-01-29T21:06:16.551Z,7.60
2023-01-29T21:08:45.028Z,7.50
2023-01-29T21:11:14.168Z,7.30
2023-01-29T21:13:44.256Z,7.40
2023-01-29T21:16:13.466Z,7.70
2023-01-29T21:18:41.946Z,8.00
2023-01-29T21:21:11.033Z,7.10
2023-01-29T21:23:39.323Z,7.60
2023-01-29T21:26:08.067Z,8.10
2023-01-29T21:28:36.684Z,7.90
2023-01-29T21:31:09.483Z,7.80
2023-01-29T21:33:38.039Z,7.50
2023-01-29T21:36:07.761Z,7.80
2023-01-29T21:38:36.490Z,7.60
2023-01-29T21:41:07.338Z,7.70
2023-01-29T21:43:36.285Z,7.60
2023-01-29T21:46:16.325Z,8.00
2023-01-29T21:48:44.880Z,8.10
2023-01-29T21:51:13.506Z,7.90
2023-01-29T21:53:41.804Z,8.50
2023-01-29T21:56:10.042Z,8.10
2023-01-29T21:58:38.740Z,8.30
2023-01-29T22:01:37.746Z,8.60
2023-01-29T22:04:08.826Z,8.70
2023-01-29T22:06:37.181Z,8.10
2023-01-29T22:09:07.709Z,9.10
2023-01-29T22:11:36.375Z,9.20
2023-01-29T22:14:05.362Z,8.70
2023-01-29T22:16:33.697Z,8.70
2023-01-29T22:19:02.200Z,9.00
2023-01-29T22:21:30.747Z,8.90
2023-01-29T22:23:59.444Z,9.10
2023-01-29T22:26:27.729Z,8.80
2023-01-29T22:28:56.380Z,8.40
2023-01-29T22:31:24.816Z,8.50
2023-01-29T22:33:53.647Z,8.20
2023-01-29T22:36:21.960Z,8.80
2023-01-29T22:38:50.183Z,8.70
2023-01-29T22:41:18.535Z,8.60
2023-01-29T22:43:46.927Z,8.90
2023-01-29T22:46:15.129Z,9.00
2023-01-29T22:48:45.263Z,8.60
2023-01-29T22:51:14.160Z,8.60
2023-01-29T22:53:44.390Z,9.00
2023-01-29T22:56:13.139Z,8.90
2023-01-29T22:58:41.544Z,9.10
2023-01-29T23:01:09.799Z,9.20
2023-01-29T23:03:38.070Z,9.10
2023-01-29T23:06:07.052Z,9.20
2023-01-29T23:08:35.787Z,9.30
2023-01-29T23:11:18.070Z,9.20
2023-01-29T23:13:50.310Z,10.00
2023-01-29T23:16:19.361Z,9.90
2023-01-29T23:18:50.243Z,9.20
2023-01-29T23:21:18.932Z,9.30
2023-01-29T23:23:47.616Z,9.40
2023-01-29T23:26:35.089Z,8.80
2023-01-29T23:29:04.153Z,9.30
2023-01-29T23:31:32.645Z,8.90
2023-01-29T23:34:01.453Z,9.30
2023-01-29T23:36:30.513Z,8.70
2023-01-29T23:38:58.702Z,9.90
2023-01-29T23:41:27.198Z,11.40
2023-01-29T23:43:56.013Z,12.20
2023-01-29T23:46:24.937Z,12.30
2023-01-29T23:48:53.212Z,13.00
2023-01-29T23:51:21.687Z,12.40
2023-01-29T23:53:49.883Z,12.80
2023-01-29T23:56:18.239Z,13.10
2023-01-29T23:58:47.726Z,12.90
